createdAt,value
2023-03-23T15:59:30.398Z,26.65
2023-03-23T16:01:57.285Z,24.25
2023-03-23T16:04:24.590Z,24.65
2023-03-23T16:06:51.696Z,24.98
2023-03-23T16:09:19.908Z,23.13
2023-03-23T16:11:46.900Z,21.00
2023-03-23T16:14:13.848Z,25.83
2023-03-23T16:16:49.705Z,20.63
2023-03-23T16:19:18.118Z,20.25
2023-03-23T16:21:44.981Z,17.20
2023-03-23T16:24:11.881Z,17.52
2023-03-23T16:26:40.763Z,16.35
2023-03-23T16:29:28.435Z,22.80
2023-03-23T16:32:02.495Z,18.75
2023-03-23T16:34:33.000Z,18.58
2023-03-23T16:37:00.227Z,13.77
2023-03-23T16:39:27.111Z,19.38
2023-03-23T16:41:53.988Z,16.65
2023-03-23T16:44:20.817Z,20.38
2023-03-23T16:46:47.649Z,16.70
2023-03-23T16:49:14.521Z,14.48
2023-03-23T16:51:42.999Z,12.23
2023-03-23T16:54:10.160Z,16.55
2023-03-23T16:56:37.069Z,12.45
2023-03-23T16:59:03.948Z,13.63
2023-03-23T17:01:31.044Z,13.00
2023-03-23T17:03:58.002Z,11.20
2023-03-23T17:06:24.895Z,10.63
2023-03-23T17:08:51.730Z,11.93
2023-03-23T17:11:18.615Z,11.20
2023-03-23T17:13:45.449Z,9.10
2023-03-23T17:16:12.445Z,12.27
2023-03-23T17:18:39.258Z,11.38
2023-03-23T17:21:06.849Z,10.68
2023-03-23T17:23:33.775Z,9.80
2023-03-23T17:26:01.355Z,9.82
2023-03-23T17:28:28.406Z,11.23
2023-03-23T17:30:55.452Z,12.98
2023-03-23T17:33:22.333Z,12.55
2023-03-23T17:35:51.919Z,13.05
2023-03-23T17:38:19.162Z,15.05
2023-03-23T17:40:46.102Z,18.48
2023-03-23T17:43:13.094Z,18.20
2023-03-23T17:45:40.999Z,16.20
2023-03-23T17:48:08.412Z,16.40
2023-03-23T17:50:37.421Z,15.10
2023-03-23T17:53:04.572Z,16.88
2023-03-23T17:55:31.545Z,15.85
2023-03-23T17:57:58.658Z,16.58
2023-03-23T18:00:25.574Z,15.70
2023-03-23T18:02:52.521Z,21.30
2023-03-23T18:05:19.492Z,19.85
2023-03-23T18:07:46.446Z,17.33
2023-03-23T18:10:14.301Z,15.13
2023-03-23T18:12:41.695Z,19.77
2023-03-23T18:15:09.345Z,16.88
2023-03-23T18:17:36.210Z,19.45
2023-03-23T18:20:04.575Z,13.00
2023-03-23T18:22:31.362Z,12.52
2023-03-23T18:24:58.561Z,14.40
2023-03-23T18:27:26.232Z,19.33
2023-03-23T18:29:53.184Z,15.30
2023-03-23T18:32:20.745Z,13.55
2023-03-23T18:34:48.617Z,13.80
2023-03-23T18:37:15.606Z,12.55
2023-03-23T18:39:42.437Z,11.77
2023-03-23T18:42:09.313Z,12.05
2023-03-23T18:44:36.577Z,11.55
2023-03-23T18:47:03.750Z,12.45
2023-03-23T18:49:37.238Z,16.77
2023-03-23T18:52:04.718Z,14.75
2023-03-23T18:54:34.995Z,14.23
2023-03-23T18:57:02.520Z,13.10
2023-03-23T18:59:30.489Z,10.32
2023-03-23T19:01:57.763Z,13.30
2023-03-23T19:04:24.900Z,12.98
2023-03-23T19:06:51.756Z,13.55
2023-03-23T19:09:18.964Z,12.25
2023-03-23T19:11:47.319Z,11.65
2023-03-23T19:14:14.295Z,10.48
2023-03-23T19:16:41.395Z,9.25
2023-03-23T19:19:08.990Z,10.05
2023-03-23T19:21:37.595Z,11.32
2023-03-23T19:24:07.078Z,11.20
2023-03-23T19:26:38.611Z,10.40
2023-03-23T19:31:37.143Z,8.35
2023-03-23T19:34:04.583Z,10.43
2023-03-23T19:36:32.848Z,10.02
2023-03-23T19:39:02.874Z,9.38
2023-03-23T19:41:30.776Z,8.15
2023-03-23T19:43:57.855Z,8.57
2023-03-23T19:46:25.533Z,9.15
2023-03-23T19:48:54.298Z,7.35
2023-03-23T19:51:22.461Z,7.63
2023-03-23T19:53:49.736Z,10.23
2023-03-23T19:56:18.064Z,10.10
2023-03-23T19:58:45.451Z,8.70
2023-03-23T20:01:12.433Z,11.10
2023-03-23T20:03:39.415Z,13.27
2023-03-23T20:06:12.634Z,11.15
2023-03-23T20:08:43.895Z,11.40
2023-03-23T20:11:12.460Z,12.48
2023-03-23T20:13:40.140Z,10.32
2023-03-23T20:16:07.683Z,9.75
2023-03-23T20:18:34.517Z,12.98
2023-03-23T20:21:06.755Z,9.95
2023-03-23T20:26:04.366Z,10.23
2023-03-23T20:28:31.203Z,8.10
2023-03-23T20:31:18.799Z,12.77
2023-03-23T20:34:00.655Z,9.07
2023-03-23T20:36:37.477Z,7.18
2023-03-23T20:39:08.142Z,7.45
2023-03-23T20:41:38.723Z,10.10
2023-03-23T20:44:06.893Z,7.70
2023-03-23T20:46:33.938Z,9.35
2023-03-23T20:49:01.218Z,10.15
2023-03-23T20:51:28.057Z,10.43
2023-03-23T20:53:55.023Z,9.15
2023-03-23T20:56:22.385Z,11.05
2023-03-23T20:58:49.283Z,8.60
2023-03-23T21:01:16.426Z,6.78
2023-03-23T21:03:44.017Z,9.00
2023-03-23T21:06:10.980Z,7.97
2023-03-23T21:08:39.122Z,9.07
2023-03-23T21:11:07.383Z,9.90
2023-03-23T21:13:34.259Z,8.82
2023-03-23T21:16:02.302Z,8.10
2023-03-23T21:18:29.862Z,7.32
2023-03-23T21:20:57.273Z,8.18
2023-03-23T21:23:26.575Z,10.43
2023-03-23T21:25:54.593Z,7.57
2023-03-23T21:28:22.129Z,8.85
2023-03-23T21:30:51.001Z,9.02
2023-03-23T21:33:17.886Z,7.07
2023-03-23T21:35:44.753Z,8.40
2023-03-23T21:38:14.384Z,7.47
2023-03-23T21:40:44.818Z,7.97
2023-03-23T21:43:13.760Z,8.40
2023-03-23T21:45:44.551Z,10.57
2023-03-23T21:48:12.206Z,8.38
2023-03-23T21:50:42.239Z,6.90
2023-03-23T21:53:12.945Z,8.50
2023-03-23T21:55:41.905Z,6.05
2023-03-23T21:58:09.723Z,7.97
2023-03-23T22:00:36.853Z,7.97
2023-03-23T22:03:04.663Z,9.10
2023-03-23T22:05:32.163Z,9.93
2023-03-23T22:07:59.193Z,6.97
2023-03-23T22:10:26.112Z,7.95
2023-03-23T22:12:55.487Z,9.18
2023-03-23T22:15:27.736Z,7.15
2023-03-23T22:17:55.596Z,9.75
2023-03-23T22:20:22.684Z,6.60
2023-03-23T22:22:49.559Z,6.18
2023-03-23T22:25:16.459Z,9.80
2023-03-23T22:27:44.622Z,5.43
2023-03-23T22:30:12.523Z,11.02
2023-03-23T22:32:39.667Z,9.07
2023-03-23T22:35:07.245Z,9.38
2023-03-23T22:37:34.107Z,8.20
2023-03-23T22:40:00.953Z,11.73
2023-03-23T22:42:27.876Z,7.55
2023-03-23T22:44:54.741Z,9.50
2023-03-23T22:47:21.545Z,7.45
2023-03-23T22:49:48.437Z,8.02
2023-03-23T22:52:15.397Z,7.88
2023-03-23T22:54:42.243Z,9.75
2023-03-23T22:57:09.120Z,9.80
2023-03-23T22:59:36.035Z,8.60
2023-03-23T23:02:02.849Z,9.23
2023-03-23T23:04:29.779Z,9.90
2023-03-23T23:07:06.725Z,9.75
2023-03-23T23:12:06.670Z,9.80
2023-03-23T23:14:33.774Z,9.85
2023-03-23T23:17:00.642Z,11.15
2023-03-23T23:19:27.589Z,9.57
2023-03-23T23:21:55.689Z,9.30
2023-03-23T23:24:22.645Z,8.57
2023-03-23T23:26:49.522Z,12.98
2023-03-23T23:29:16.339Z,10.20
2023-03-23T23:31:43.175Z,12.18
2023-03-23T23:34:13.673Z,10.23
2023-03-23T23:36:40.688Z,9.93
2023-03-23T23:39:07.528Z,10.50
2023-03-23T23:41:35.059Z,9.02
2023-03-23T23:44:01.964Z,10.13
2023-03-23T23:46:30.673Z,7.03
2023-03-23T23:48:58.379Z,9.35
2023-03-23T23:51:27.812Z,9.88
2023-03-23T23:53:58.942Z,9.48
2023-03-23T23:56:26.371Z,7.93
2023-03-23T23:58:53.272Z,10.98
